sensor_id;sensor_type;location;lat;lon;timestamp;pressure;altitude;pressure_sealevel;temperature;humidity
13695;BME280;6919;52.344;14.518;2023-04-06T00:01:16;101283.63;;;3.81;100.00
13695;BME280;6919;52.344;14.518;2023-04-06T00:03:46;101277.25;;;3.84;100.00
13695;BME280;6919;52.344;14.518;2023-04-06T00:06:14;101272.13;;;3.81;100.00
13695;BME280;6919;52.344;14.518;2023-04-06T00:08:43;101277.81;;;3.75;100.00
13695;BME280;6919;52.344;14.518;2023-04-06T00:11:12;101273.66;;;3.71;100.00
13695;BME280;6919;52.344;14.518;2023-04-06T00:13:41;101283.34;;;3.72;100.00
13695;BME280;6919;52.344;14.518;2023-04-06T00:16:09;101270.16;;;3.70;100.00
13695;BME280;6919;52.344;14.518;2023-04-06T00:18:38;101274.50;;;3.71;100.00
13695;BME280;6919;52.344;14.518;2023-04-06T00:21:10;101276.97;;;3.74;100.00
13695;BME280;6919;52.344;14.518;2023-04-06T00:23:40;101268.94;;;3.62;100.00
13695;BME280;6919;52.344;14.518;2023-04-06T00:26:09;101272.50;;;3.61;100.00
13695;BME280;6919;52.344;14.518;2023-04-06T00:28:38;101270.06;;;3.72;100.00
13695;BME280;6919;52.344;14.518;2023-04-06T00:31:06;101273.19;;;3.64;100.00
13695;BME280;6919;52.344;14.518;2023-04-06T00:33:35;101280.56;;;3.73;100.00
13695;BME280;6919;52.344;14.518;2023-04-06T00:36:04;101283.44;;;3.84;100.00
13695;BME280;6919;52.344;14.518;2023-04-06T00:38:35;101267.19;;;3.75;100.00
13695;BME280;6919;52.344;14.518;2023-04-06T00:41:04;101267.78;;;3.66;100.00
13695;BME280;6919;52.344;14.518;2023-04-06T00:43:33;101271.69;;;3.74;100.00
13695;BME280;6919;52.344;14.518;2023-04-06T00:46:01;101269.03;;;3.60;100.00
13695;BME280;6919;52.344;14.518;2023-04-06T00:48:30;101264.16;;;3.53;100.00
13695;BME280;6919;52.344;14.518;2023-04-06T00:51:00;101267.69;;;3.53;100.00
13695;BME280;6919;52.344;14.518;2023-04-06T00:53:29;101268.75;;;3.51;100.00
13695;BME280;6919;52.344;14.518;2023-04-06T00:55:59;101271.84;;;3.43;100.00
13695;BME280;6919;52.344;14.518;2023-04-06T00:58:27;101269.97;;;3.45;100.00
13695;BME280;6919;52.344;14.518;2023-04-06T01:00:57;101262.75;;;3.47;100.00
13695;BME280;6919;52.344;14.518;2023-04-06T01:03:26;101261.06;;;3.46;100.00
13695;BME280;6919;52.344;14.518;2023-04-06T01:05:55;101255.94;;;3.85;100.00
13695;BME280;6919;52.344;14.518;2023-04-06T01:08:25;101255.19;;;3.83;100.00
13695;BME280;6919;52.344;14.518;2023-04-06T01:10:55;101259.84;;;3.66;100.00
13695;BME280;6919;52.344;14.518;2023-04-06T01:13:25;101261.44;;;3.54;100.00
13695;BME280;6919;52.344;14.518;2023-04-06T01:15:54;101263.34;;;3.66;100.00
13695;BME280;6919;52.344;14.518;2023-04-06T01:18:26;101255.47;;;3.51;100.00
13695;BME280;6919;52.344;14.518;2023-04-06T01:20:55;101259.84;;;3.66;100.00
13695;BME280;6919;52.344;14.518;2023-04-06T01:23:25;101259.91;;;3.92;100.00
13695;BME280;6919;52.344;14.518;2023-04-06T01:25:54;101255.56;;;3.91;100.00
13695;BME280;6919;52.344;14.518;2023-04-06T01:28:23;101261.06;;;3.74;100.00
13695;BME280;6919;52.344;14.518;2023-04-06T01:30:52;101261.25;;;3.71;100.00
13695;BME280;6919;52.344;14.518;2023-04-06T01:33:20;101258.78;;;3.68;100.00
13695;BME280;6919;52.344;14.518;2023-04-06T01:35:49;101264.84;;;3.56;100.00
13695;BME280;6919;52.344;14.518;2023-04-06T01:38:18;101267.31;;;3.45;100.00
13695;BME280;6919;52.344;14.518;2023-04-06T01:40:48;101262.56;;;3.36;100.00
13695;BME280;6919;52.344;14.518;2023-04-06T01:43:16;101267.47;;;3.28;100.00
13695;BME280;6919;52.344;14.518;2023-04-06T01:45:45;101264.41;;;3.20;100.00
13695;BME280;6919;52.344;14.518;2023-04-06T01:48:14;101272.16;;;3.23;100.00
13695;BME280;6919;52.344;14.518;2023-04-06T01:50:43;101264.31;;;3.22;100.00
13695;BME280;6919;52.344;14.518;2023-04-06T01:53:11;101272.09;;;3.39;100.00
13695;BME280;6919;52.344;14.518;2023-04-06T01:55:40;101275.25;;;3.31;100.00
13695;BME280;6919;52.344;14.518;2023-04-06T01:58:10;101266.59;;;3.28;100.00
13695;BME280;6919;52.344;14.518;2023-04-06T02:00:39;101265.19;;;3.36;100.00
13695;BME280;6919;52.344;14.518;2023-04-06T02:03:08;101267.09;;;3.48;100.00
13695;BME280;6919;52.344;14.518;2023-04-06T02:05:37;101264.06;;;3.40;100.00
13695;BME280;6919;52.344;14.518;2023-04-06T02:08:06;101264.00;;;3.56;100.00
13695;BME280;6919;52.344;14.518;2023-04-06T02:10:35;101258.22;;;3.35;100.00
13695;BME280;6919;52.344;14.518;2023-04-06T02:13:04;101266.09;;;3.65;100.00
13695;BME280;6919;52.344;14.518;2023-04-06T02:15:34;101252.75;;;3.66;100.00
13695;BME280;6919;52.344;14.518;2023-04-06T02:18:03;101250.19;;;3.51;100.00
13695;BME280;6919;52.344;14.518;2023-04-06T02:20:32;101254.25;;;3.42;100.00
13695;BME280;6919;52.344;14.518;2023-04-06T02:23:00;101247.63;;;3.63;100.00
13695;BME280;6919;52.344;14.518;2023-04-06T02:25:29;101251.41;;;3.59;100.00
13695;BME280;6919;52.344;14.518;2023-04-06T02:27:57;101247.53;;;3.65;100.00
13695;BME280;6919;52.344;14.518;2023-04-06T02:30:26;101251.00;;;3.51;100.00
13695;BME280;6919;52.344;14.518;2023-04-06T02:32:57;101253.28;;;3.43;100.00
13695;BME280;6919;52.344;14.518;2023-04-06T02:35:27;101251.19;;;3.34;100.00
13695;BME280;6919;52.344;14.518;2023-04-06T02:37:56;101253.72;;;3.36;100.00
13695;BME280;6919;52.344;14.518;2023-04-06T02:40:24;101248.91;;;3.28;100.00
13695;BME280;6919;52.344;14.518;2023-04-06T02:42:53;101246.09;;;3.31;100.00
13695;BME280;6919;52.344;14.518;2023-04-06T02:45:22;101254.78;;;3.33;100.00
13695;BME280;6919;52.344;14.518;2023-04-06T02:47:50;101257.44;;;3.33;100.00
13695;BME280;6919;52.344;14.518;2023-04-06T02:50:20;101260.25;;;3.30;100.00
13695;BME280;6919;52.344;14.518;2023-04-06T02:52:49;101255.72;;;3.32;100.00
13695;BME280;6919;52.344;14.518;2023-04-06T02:55:17;101252.41;;;3.29;100.00
13695;BME280;6919;52.344;14.518;2023-04-06T02:57:48;101252.50;;;3.27;100.00
13695;BME280;6919;52.344;14.518;2023-04-06T03:00:18;101253.63;;;3.23;100.00
13695;BME280;6919;52.344;14.518;2023-04-06T03:02:48;101254.50;;;3.24;100.00
13695;BME280;6919;52.344;14.518;2023-04-06T03:05:17;101254.41;;;3.25;100.00
13695;BME280;6919;52.344;14.518;2023-04-06T03:07:47;101257.59;;;3.16;100.00
13695;BME280;6919;52.344;14.518;2023-04-06T03:10:16;101261.66;;;3.22;100.00
13695;BME280;6919;52.344;14.518;2023-04-06T03:12:45;101259.09;;;3.20;100.00
13695;BME280;6919;52.344;14.518;2023-04-06T03:15:13;101265.88;;;3.26;100.00
13695;BME280;6919;52.344;14.518;2023-04-06T03:17:42;101266.44;;;3.31;100.00
13695;BME280;6919;52.344;14.518;2023-04-06T03:20:12;101262.72;;;3.33;100.00
13695;BME280;6919;52.344;14.518;2023-04-06T03:22:41;101261.97;;;3.17;100.00
13695;BME280;6919;52.344;14.518;2023-04-06T03:25:12;101267.63;;;3.11;100.00
13695;BME280;6919;52.344;14.518;2023-04-06T03:27:41;101264.28;;;3.07;100.00
13695;BME280;6919;52.344;14.518;2023-04-06T03:30:10;101260.03;;;3.05;100.00
13695;BME280;6919;52.344;14.518;2023-04-06T03:32:39;101272.59;;;3.01;100.00
13695;BME280;6919;52.344;14.518;2023-04-06T03:35:08;101269.88;;;3.03;100.00
13695;BME280;6919;52.344;14.518;2023-04-06T03:37:37;101267.41;;;3.00;100.00
13695;BME280;6919;52.344;14.518;2023-04-06T03:40:06;101270.78;;;3.02;100.00
13695;BME280;6919;52.344;14.518;2023-04-06T03:42:37;101270.19;;;3.13;100.00
13695;BME280;6919;52.344;14.518;2023-04-06T03:45:06;101278.06;;;3.28;100.00
13695;BME280;6919;52.344;14.518;2023-04-06T03:47:35;101281.09;;;3.36;100.00
13695;BME280;6919;52.344;14.518;2023-04-06T03:50:05;101285.84;;;3.31;100.00
13695;BME280;6919;52.344;14.518;2023-04-06T03:52:34;101276.16;;;3.30;100.00
13695;BME280;6919;52.344;14.518;2023-04-06T03:55:04;101282.69;;;3.25;100.00
13695;BME280;6919;52.344;14.518;2023-04-06T03:57:32;101283.34;;;3.14;100.00
13695;BME280;6919;52.344;14.518;2023-04-06T04:00:03;101283.34;;;3.14;100.00
13695;BME280;6919;52.344;14.518;2023-04-06T04:02:32;101280.78;;;3.13;100.00
13695;BME280;6919;52.344;14.518;2023-04-06T04:05:01;101284.00;;;3.17;100.00
13695;BME280;6919;52.344;14.518;2023-04-06T04:07:30;101285.59;;;3.06;100.00
13695;BME280;6919;52.344;14.518;2023-04-06T04:09:58;101289.94;;;3.07;100.00
13695;BME280;6919;52.344;14.518;2023-04-06T04:12:27;101287.47;;;3.04;100.00
13695;BME280;6919;52.344;14.518;2023-04-06T04:14:55;101295.00;;;2.96;100.00
13695;BME280;6919;52.344;14.518;2023-04-06T04:17:25;101293.94;;;2.84;100.00
13695;BME280;6919;52.344;14.518;2023-04-06T04:19:54;101302.28;;;2.77;100.00
13695;BME280;6919;52.344;14.518;2023-04-06T04:22:23;101300.59;;;2.76;100.00
13695;BME280;6919;52.344;14.518;2023-04-06T04:24:51;101296.66;;;2.83;100.00
13695;BME280;6919;52.344;14.518;2023-04-06T04:27:20;101287.91;;;2.96;100.00
13695;BME280;6919;52.344;14.518;2023-04-06T04:29:49;101296.00;;;2.79;100.00
13695;BME280;6919;52.344;14.518;2023-04-06T04:32:19;101301.53;;;2.90;100.00
13695;BME280;6919;52.344;14.518;2023-04-06T04:34:49;101298.91;;;2.75;100.00
13695;BME280;6919;52.344;14.518;2023-04-06T04:37:18;101303.66;;;2.84;100.00
13695;BME280;6919;52.344;14.518;2023-04-06T04:39:47;101298.81;;;2.76;100.00
13695;BME280;6919;52.344;14.518;2023-04-06T04:42:15;101303.41;;;2.88;100.00
13695;BME280;6919;52.344;14.518;2023-04-06T04:44:44;101300.59;;;2.76;100.00
13695;BME280;6919;52.344;14.518;2023-04-06T04:47:13;101307.81;;;2.88;100.00
13695;BME280;6919;52.344;14.518;2023-04-06T04:49:41;101304.16;;;2.90;100.00
13695;BME280;6919;52.344;14.518;2023-04-06T04:52:11;101300.84;;;2.87;100.00
13695;BME280;6919;52.344;14.518;2023-04-06T04:54:40;101294.63;;;3.02;100.00
13695;BME280;6919;52.344;14.518;2023-04-06T04:57:09;101302.50;;;3.03;100.00
13695;BME280;6919;52.344;14.518;2023-04-06T04:59:38;101300.97;;;2.99;100.00
13695;BME280;6919;52.344;14.518;2023-04-06T05:02:07;101299.53;;;2.94;100.00
13695;BME280;6919;52.344;14.518;2023-04-06T05:04:36;101303.72;;;2.98;100.00
13695;BME280;6919;52.344;14.518;2023-04-06T05:07:05;101304.72;;;3.11;100.00
13695;BME280;6919;52.344;14.518;2023-04-06T05:09:35;101307.63;;;3.06;100.00
13695;BME280;6919;52.344;14.518;2023-04-06T05:12:05;101307.69;;;3.05;100.00
13695;BME280;6919;52.344;14.518;2023-04-06T05:14:34;101304.13;;;3.06;100.00
13695;BME280;6919;52.344;14.518;2023-04-06T05:17:03;101308.41;;;3.08;100.00
13695;BME280;6919;52.344;14.518;2023-04-06T05:19:32;101306.66;;;3.07;100.00
13695;BME280;6919;52.344;14.518;2023-04-06T05:22:01;101310.09;;;3.09;100.00
13695;BME280;6919;52.344;14.518;2023-04-06T05:24:30;101306.91;;;3.19;100.00
13695;BME280;6919;52.344;14.518;2023-04-06T05:27:00;101309.44;;;3.20;100.00
13695;BME280;6919;52.344;14.518;2023-04-06T05:29:29;101314.25;;;3.43;100.00
13695;BME280;6919;52.344;14.518;2023-04-06T05:31:57;101314.28;;;3.57;100.00
13695;BME280;6919;52.344;14.518;2023-04-06T05:34:26;101313.22;;;3.46;100.00
13695;BME280;6919;52.344;14.518;2023-04-06T05:36:55;101318.78;;;3.41;100.00
13695;BME280;6919;52.344;14.518;2023-04-06T05:39:23;101315.69;;;3.49;100.00
13695;BME280;6919;52.344;14.518;2023-04-06T05:41:52;101312.25;;;3.33;100.00
13695;BME280;6919;52.344;14.518;2023-04-06T05:44:23;101320.47;;;3.28;100.00
13695;BME280;6919;52.344;14.518;2023-04-06T05:46:51;101316.50;;;3.35;100.00
13695;BME280;6919;52.344;14.518;2023-04-06T05:49:21;101324.00;;;3.43;100.00
13695;BME280;6919;52.344;14.518;2023-04-06T05:51:50;101323.09;;;3.58;100.00
13695;BME280;6919;52.344;14.518;2023-04-06T05:54:18;101319.50;;;3.87;100.00
13695;BME280;6919;52.344;14.518;2023-04-06T05:56:48;101324.03;;;3.71;100.00
13695;BME280;6919;52.344;14.518;2023-04-06T05:59:16;101316.00;;;3.86;100.00
13695;BME280;6919;52.344;14.518;2023-04-06T06:01:47;101321.22;;;4.02;100.00
13695;BME280;6919;52.344;14.518;2023-04-06T06:04:15;101318.84;;;4.11;100.00
13695;BME280;6919;52.344;14.518;2023-04-06T06:06:44;101329.06;;;4.17;100.00
13695;BME280;6919;52.344;14.518;2023-04-06T06:09:13;101320.84;;;4.08;100.00
13695;BME280;6919;52.344;14.518;2023-04-06T06:11:42;101329.44;;;4.11;100.00
13695;BME280;6919;52.344;14.518;2023-04-06T06:14:11;101333.69;;;4.28;100.00
13695;BME280;6919;52.344;14.518;2023-04-06T06:16:39;101330.41;;;4.24;100.00
13695;BME280;6919;52.344;14.518;2023-04-06T06:19:09;101334.09;;;4.22;100.00
13695;BME280;6919;52.344;14.518;2023-04-06T06:21:38;101336.06;;;4.32;100.00
13695;BME280;6919;52.344;14.518;2023-04-06T06:24:08;101339.22;;;4.39;100.00
13695;BME280;6919;52.344;14.518;2023-04-06T06:26:37;101330.28;;;4.40;100.00
13695;BME280;6919;52.344;14.518;2023-04-06T06:29:07;101334.34;;;4.86;100.00
13695;BME280;6919;52.344;14.518;2023-04-06T06:31:36;101327.38;;;4.97;100.00
13695;BME280;6919;52.344;14.518;2023-04-06T06:34:04;101331.69;;;5.25;100.00
13695;BME280;6919;52.344;14.518;2023-04-06T06:36:34;101334.25;;;5.26;100.00
13695;BME280;6919;52.344;14.518;2023-04-06T06:39:03;101340.34;;;5.53;100.00
13695;BME280;6919;52.344;14.518;2023-04-06T06:41:32;101335.63;;;5.83;100.00
13695;BME280;6919;52.344;14.518;2023-04-06T06:44:00;101338.56;;;5.66;100.00
13695;BME280;6919;52.344;14.518;2023-04-06T06:46:29;101342.94;;;5.80;100.00
13695;BME280;6919;52.344;14.518;2023-04-06T06:48:59;101338.91;;;5.87;100.00
13695;BME280;6919;52.344;14.518;2023-04-06T06:51:28;101334.56;;;5.98;100.00
13695;BME280;6919;52.344;14.518;2023-04-06T06:53:58;101337.84;;;6.27;100.00
13695;BME280;6919;52.344;14.518;2023-04-06T06:56:27;101344.13;;;6.13;100.00
13695;BME280;6919;52.344;14.518;2023-04-06T06:58:55;101338.09;;;5.99;100.00
13695;BME280;6919;52.344;14.518;2023-04-06T07:01:24;101345.94;;;6.13;100.00
13695;BME280;6919;52.344;14.518;2023-04-06T07:03:53;101349.25;;;5.91;100.00
13695;BME280;6919;52.344;14.518;2023-04-06T07:06:22;101348.94;;;5.83;100.00
13695;BME280;6919;52.344;14.518;2023-04-06T07:08:51;101346.69;;;5.90;100.00
13695;BME280;6919;52.344;14.518;2023-04-06T07:11:21;101348.72;;;6.24;100.00
13695;BME280;6919;52.344;14.518;2023-04-06T07:13:50;101348.56;;;6.38;100.00
13695;BME280;6919;52.344;14.518;2023-04-06T07:16:19;101353.28;;;6.09;100.00
13695;BME280;6919;52.344;14.518;2023-04-06T07:18:47;101350.72;;;6.08;100.00
13695;BME280;6919;52.344;14.518;2023-04-06T07:21:16;101357.22;;;6.17;100.00
13695;BME280;6919;52.344;14.518;2023-04-06T07:23:44;101356.03;;;6.46;100.00
13695;BME280;6919;52.344;14.518;2023-04-06T07:26:15;101350.44;;;6.61;100.00
13695;BME280;6919;52.344;14.518;2023-04-06T07:28:45;101346.56;;;6.78;100.00
13695;BME280;6919;52.344;14.518;2023-04-06T07:31:14;101347.56;;;6.88;100.00
13695;BME280;6919;52.344;14.518;2023-04-06T07:33:42;101352.03;;;6.64;100.00
13695;BME280;6919;52.344;14.518;2023-04-06T07:36:12;101355.59;;;6.39;100.00
13695;BME280;6919;52.344;14.518;2023-04-06T07:38:40;101352.00;;;6.76;100.00
13695;BME280;6919;52.344;14.518;2023-04-06T07:41:09;101349.78;;;6.94;100.00
13695;BME280;6919;52.344;14.518;2023-04-06T07:43:38;101355.56;;;6.52;100.00
13695;BME280;6919;52.344;14.518;2023-04-06T07:46:08;101345.56;;;6.55;100.00
13695;BME280;6919;52.344;14.518;2023-04-06T07:48:36;101351.97;;;6.53;100.00
13695;BME280;6919;52.344;14.518;2023-04-06T07:51:06;101358.19;;;6.64;100.00
13695;BME280;6919;52.344;14.518;2023-04-06T07:53:36;101362.44;;;6.67;100.00
13695;BME280;6919;52.344;14.518;2023-04-06T07:56:05;101366.09;;;6.66;100.00
13695;BME280;6919;52.344;14.518;2023-04-06T07:58:33;101360.38;;;6.83;100.00
13695;BME280;6919;52.344;14.518;2023-04-06T08:01:02;101359.78;;;7.03;100.00
13695;BME280;6919;52.344;14.518;2023-04-06T08:03:34;101356.75;;;7.07;100.00
13695;BME280;6919;52.344;14.518;2023-04-06T08:06:03;101365.19;;;7.14;100.00
13695;BME280;6919;52.344;14.518;2023-04-06T08:08:32;101367.19;;;7.57;100.00
13695;BME280;6919;52.344;14.518;2023-04-06T08:11:01;101363.75;;;7.55;100.00
13695;BME280;6919;52.344;14.518;2023-04-06T08:13:30;101371.00;;;7.88;97.87
13695;BME280;6919;52.344;14.518;2023-04-06T08:16:00;101367.03;;;8.15;94.53
13695;BME280;6919;52.344;14.518;2023-04-06T08:18:28;101365.75;;;8.32;94.65
13695;BME280;6919;52.344;14.518;2023-04-06T08:20:58;101369.38;;;8.53;90.17
13695;BME280;6919;52.344;14.518;2023-04-06T08:23:27;101366.47;;;8.56;88.81
13695;BME280;6919;52.344;14.518;2023-04-06T08:25:56;101366.00;;;8.51;89.41
13695;BME280;6919;52.344;14.518;2023-04-06T08:28:25;101370.06;;;8.00;89.62
13695;BME280;6919;52.344;14.518;2023-04-06T08:30:54;101363.25;;;8.07;89.88
13695;BME280;6919;52.344;14.518;2023-04-06T08:33:22;101360.38;;;8.10;88.10
13695;BME280;6919;52.344;14.518;2023-04-06T08:35:51;101360.94;;;7.91;91.27
13695;BME280;6919;52.344;14.518;2023-04-06T08:38:21;101369.06;;;7.90;87.42
13695;BME280;6919;52.344;14.518;2023-04-06T08:40:50;101361.06;;;7.90;83.69
13695;BME280;6919;52.344;14.518;2023-04-06T08:43:22;101361.47;;;7.62;84.13
13695;BME280;6919;52.344;14.518;2023-04-06T08:45:51;101363.75;;;7.55;80.70
13695;BME280;6919;52.344;14.518;2023-04-06T08:48:20;101360.94;;;8.02;78.00
13695;BME280;6919;52.344;14.518;2023-04-06T08:50:51;101359.38;;;8.00;73.27
13695;BME280;6919;52.344;14.518;2023-04-06T08:53:22;101358.75;;;7.85;68.04
13695;BME280;6919;52.344;14.518;2023-04-06T08:55:51;101356.16;;;8.29;69.92
13695;BME280;6919;52.344;14.518;2023-04-06T08:58:20;101354.22;;;8.42;66.05
13695;BME280;6919;52.344;14.518;2023-04-06T09:01:06;101357.22;;;8.60;63.57
13695;BME280;6919;52.344;14.518;2023-04-06T09:03:38;101349.47;;;8.46;63.75
13695;BME280;6919;52.344;14.518;2023-04-06T09:06:08;101353.25;;;8.32;71.02
13695;BME280;6919;52.344;14.518;2023-04-06T09:08:41;101348.94;;;8.74;71.92
13695;BME280;6919;52.344;14.518;2023-04-06T09:11:10;101352.06;;;9.33;72.63
13695;BME280;6919;52.344;14.518;2023-04-06T09:13:46;101349.34;;;9.12;69.67
13695;BME280;6919;52.344;14.518;2023-04-06T09:16:18;101345.44;;;9.16;64.80
13695;BME280;6919;52.344;14.518;2023-04-06T09:18:47;101339.38;;;9.03;62.57
13695;BME280;6919;52.344;14.518;2023-04-06T09:21:17;101340.22;;;8.50;62.93
13695;BME280;6919;52.344;14.518;2023-04-06T09:24:00;101333.88;;;8.73;59.89
13695;BME280;6919;52.344;14.518;2023-04-06T09:26:30;101345.06;;;8.67;64.86
13695;BME280;6919;52.344;14.518;2023-04-06T09:29:01;101337.31;;;9.38;63.24
13695;BME280;6919;52.344;14.518;2023-04-06T09:31:31;101338.56;;;9.55;58.91
13695;BME280;6919;52.344;14.518;2023-04-06T09:34:01;101335.63;;;9.37;59.67
13695;BME280;6919;52.344;14.518;2023-04-06T09:36:31;101339.03;;;9.39;59.18
13695;BME280;6919;52.344;14.518;2023-04-06T09:39:03;101336.03;;;9.74;58.45
13695;BME280;6919;52.344;14.518;2023-04-06T09:41:33;101334.81;;;10.28;58.63
13695;BME280;6919;52.344;14.518;2023-04-06T09:44:03;101333.63;;;10.61;55.68
13695;BME280;6919;52.344;14.518;2023-04-06T09:46:33;101339.72;;;10.53;54.89
13695;BME280;6919;52.344;14.518;2023-04-06T09:49:23;101334.59;;;10.41;54.00
13695;BME280;6919;52.344;14.518;2023-04-06T09:51:55;101345.34;;;10.50;53.67
13695;BME280;6919;52.344;14.518;2023-04-06T09:54:29;101331.31;;;10.96;52.75
13695;BME280;6919;52.344;14.518;2023-04-06T09:57:04;101334.00;;;10.86;54.84
13695;BME280;6919;52.344;14.518;2023-04-06T09:59:43;101331.94;;;10.50;52.30
13695;BME280;6919;52.344;14.518;2023-04-06T10:02:23;101333.25;;;10.26;52.33
13695;BME280;6919;52.344;14.518;2023-04-06T10:04:56;101328.06;;;9.83;50.65
13695;BME280;6919;52.344;14.518;2023-04-06T10:07:27;101330.31;;;9.67;53.90
13695;BME280;6919;52.344;14.518;2023-04-06T10:09:59;101325.03;;;10.18;56.30
13695;BME280;6919;52.344;14.518;2023-04-06T10:12:29;101326.88;;;10.17;52.04
13695;BME280;6919;52.344;14.518;2023-04-06T10:14:58;101321.31;;;9.89;53.32
13695;BME280;6919;52.344;14.518;2023-04-06T10:17:27;101315.81;;;10.41;53.60
13695;BME280;6919;52.344;14.518;2023-04-06T10:20:02;101320.03;;;10.92;52.85
13695;BME280;6919;52.344;14.518;2023-04-06T10:22:36;101315.84;;;11.37;51.69
13695;BME280;6919;52.344;14.518;2023-04-06T10:25:12;101311.97;;;10.83;49.22
13695;BME280;6919;52.344;14.518;2023-04-06T10:27:41;101303.94;;;10.92;51.46
13695;BME280;6919;52.344;14.518;2023-04-06T10:30:10;101301.25;;;11.02;49.66
13695;BME280;6919;52.344;14.518;2023-04-06T10:32:39;101304.94;;;11.29;49.81
13695;BME280;6919;52.344;14.518;2023-04-06T10:35:09;101301.69;;;11.26;48.71
13695;BME280;6919;52.344;14.518;2023-04-06T10:37:52;101305.03;;;10.80;47.69
13695;BME280;6919;52.344;14.518;2023-04-06T10:40:25;101299.63;;;10.22;49.17
13695;BME280;6919;52.344;14.518;2023-04-06T10:42:55;101302.19;;;10.23;49.41
13695;BME280;6919;52.344;14.518;2023-04-06T10:45:25;101281.13;;;10.58;51.10
13695;BME280;6919;52.344;14.518;2023-04-06T10:47:54;101299.16;;;11.34;51.42
13695;BME280;6919;52.344;14.518;2023-04-06T10:50:24;101291.31;;;10.64;49.21
13695;BME280;6919;52.344;14.518;2023-04-06T10:53:00;101294.16;;;10.72;50.53
13695;BME280;6919;52.344;14.518;2023-04-06T10:55:30;101295.56;;;10.86;50.66
13695;BME280;6919;52.344;14.518;2023-04-06T10:57:59;101292.22;;;10.93;50.29
13695;BME280;6919;52.344;14.518;2023-04-06T11:00:27;101295.31;;;10.89;49.79
13695;BME280;6919;52.344;14.518;2023-04-06T11:03:13;101282.03;;;10.87;50.88
13695;BME280;6919;52.344;14.518;2023-04-06T11:05:44;101290.53;;;11.02;49.89
13695;BME280;6919;52.344;14.518;2023-04-06T11:08:24;101290.94;;;10.88;49.11
13695;BME280;6919;52.344;14.518;2023-04-06T11:11:04;101282.78;;;10.40;52.65
13695;BME280;6919;52.344;14.518;2023-04-06T11:13:41;101291.75;;;10.69;51.05
13695;BME280;6919;52.344;14.518;2023-04-06T11:16:14;101281.75;;;10.81;52.27
13695;BME280;6919;52.344;14.518;2023-04-06T11:18:51;101287.97;;;11.00;50.18
13695;BME280;6919;52.344;14.518;2023-04-06T11:21:20;101283.75;;;11.07;49.16
13695;BME280;6919;52.344;14.518;2023-04-06T11:23:49;101284.59;;;10.98;48.90
13695;BME280;6919;52.344;14.518;2023-04-06T11:26:19;101282.34;;;10.94;48.54
13695;BME280;6919;52.344;14.518;2023-04-06T11:28:47;101286.00;;;10.93;48.17
13695;BME280;6919;52.344;14.518;2023-04-06T11:31:16;101286.94;;;10.63;49.57
13695;BME280;6919;52.344;14.518;2023-04-06T11:33:45;101276.38;;;11.00;48.74
13695;BME280;6919;52.344;14.518;2023-04-06T11:36:14;101276.56;;;11.17;47.00
13695;BME280;6919;52.344;14.518;2023-04-06T11:38:43;101276.97;;;10.84;47.02
13695;BME280;6919;52.344;14.518;2023-04-06T11:41:12;101266.25;;;10.84;51.95
13695;BME280;6919;52.344;14.518;2023-04-06T11:43:47;101266.78;;;10.97;49.94
13695;BME280;6919;52.344;14.518;2023-04-06T11:46:18;101268.63;;;11.25;50.36
13695;BME280;6919;52.344;14.518;2023-04-06T11:48:47;101276.38;;;11.47;48.63
13695;BME280;6919;52.344;14.518;2023-04-06T11:51:22;101262.41;;;11.34;47.38
13695;BME280;6919;52.344;14.518;2023-04-06T11:53:51;101259.53;;;11.55;48.81
13695;BME280;6919;52.344;14.518;2023-04-06T11:56:24;101256.63;;;11.39;47.49
13695;BME280;6919;52.344;14.518;2023-04-06T11:58:55;101257.63;;;11.93;47.55
13695;BME280;6919;52.344;14.518;2023-04-06T12:01:25;101252.00;;;12.24;43.48
13695;BME280;6919;52.344;14.518;2023-04-06T12:03:55;101253.81;;;12.50;44.94
13695;BME280;6919;52.344;14.518;2023-04-06T12:06:24;101253.91;;;12.58;44.25
13695;BME280;6919;52.344;14.518;2023-04-06T12:08:52;101249.84;;;13.16;42.19
13695;BME280;6919;52.344;14.518;2023-04-06T12:11:21;101257.97;;;13.24;43.38
13695;BME280;6919;52.344;14.518;2023-04-06T12:13:50;101249.88;;;13.93;43.10
13695;BME280;6919;52.344;14.518;2023-04-06T12:16:20;101258.06;;;13.58;41.53
13695;BME280;6919;52.344;14.518;2023-04-06T12:18:49;101257.94;;;13.42;41.42
13695;BME280;6919;52.344;14.518;2023-04-06T12:21:17;101257.97;;;13.24;40.08
13695;BME280;6919;52.344;14.518;2023-04-06T12:23:46;101251.19;;;12.85;39.63
13695;BME280;6919;52.344;14.518;2023-04-06T12:26:15;101253.88;;;12.41;40.58
13695;BME280;6919;52.344;14.518;2023-04-06T12:28:43;101250.53;;;13.01;42.03
13695;BME280;6919;52.344;14.518;2023-04-06T12:31:15;101251.56;;;13.68;41.68
13695;BME280;6919;52.344;14.518;2023-04-06T12:33:47;101252.63;;;14.01;40.69
13695;BME280;6919;52.344;14.518;2023-04-06T12:36:17;101248.47;;;13.55;39.24
13695;BME280;6919;52.344;14.518;2023-04-06T12:38:47;101250.66;;;13.17;40.71
13695;BME280;6919;52.344;14.518;2023-04-06T12:41:16;101246.53;;;12.60;41.36
13695;BME280;6919;52.344;14.518;2023-04-06T12:43:45;101250.03;;;12.70;41.23
13695;BME280;6919;52.344;14.518;2023-04-06T12:46:14;101242.84;;;12.44;42.45
13695;BME280;6919;52.344;14.518;2023-04-06T12:48:44;101241.75;;;12.37;41.68
13695;BME280;6919;52.344;14.518;2023-04-06T12:51:13;101242.13;;;12.42;42.37
13695;BME280;6919;52.344;14.518;2023-04-06T12:53:42;101237.84;;;12.49;42.39
13695;BME280;6919;52.344;14.518;2023-04-06T12:56:15;101236.50;;;12.35;42.39
13695;BME280;6919;52.344;14.518;2023-04-06T12:58:44;101233.66;;;12.37;41.25
13695;BME280;6919;52.344;14.518;2023-04-06T13:01:13;101234.28;;;11.94;41.35
13695;BME280;6919;52.344;14.518;2023-04-06T13:03:42;101235.66;;;11.71;41.55